Green Valley, Wisconsin
Current Conditions -  °F | °C
As of 8:55 AM on Thursday 30 Oct 2014 (Local Time) from KEZS Reporting Station
Broken Clouds Broken Clouds  
Wind Chill: 35°   Ceiling: 11000
Heat Index: 39°   Visibility: 10mi
Dew Point: 35°   Wind: 5mph
Humidity: 84%   Direction: 240°WSW
Pressure: 30.08"   Gusts: NA
Location:  44.8°N, 88.27°W
Report Text: KEZS 301355Z AUTO 24004KT 10SM SCT032 BKN110 04/01 A3008 RMK AO2 T00380014
Loading
Personal Weather Stations






























Interactive Weather Map
Tropical Storm Tracking
New forecast layout! Learn more

10-Day Weather Forecast

Advertisements
Track Severe Weather on mobile